sensor_id;sensor_type;location;lat;lon;timestamp;P1;durP1;ratioP1;P2;durP2;ratioP2
54143;SDS011;40050;47.324;18.792;2024-01-30T00:01:52;72.77;;;33.74;;
54143;SDS011;40050;47.324;18.792;2024-01-30T00:03:53;72.90;;;33.75;;
54143;SDS011;40050;47.324;18.792;2024-01-30T00:05:54;65.55;;;33.25;;
54143;SDS011;40050;47.324;18.792;2024-01-30T00:07:54;78.70;;;35.14;;
54143;SDS011;40050;47.324;18.792;2024-01-30T00:09:55;65.11;;;32.27;;
54143;SDS011;40050;47.324;18.792;2024-01-30T00:11:56;75.18;;;33.45;;
54143;SDS011;40050;47.324;18.792;2024-01-30T00:13:57;71.93;;;34.45;;
54143;SDS011;40050;47.324;18.792;2024-01-30T00:15:58;73.87;;;34.35;;
54143;SDS011;40050;47.324;18.792;2024-01-30T00:17:59;73.90;;;33.37;;
54143;SDS011;40050;47.324;18.792;2024-01-30T00:20:00;75.61;;;34.76;;
54143;SDS011;40050;47.324;18.792;2024-01-30T00:22:01;79.06;;;34.95;;
54143;SDS011;40050;47.324;18.792;2024-01-30T00:24:02;70.80;;;34.15;;
54143;SDS011;40050;47.324;18.792;2024-01-30T00:26:03;74.85;;;35.14;;
54143;SDS011;40050;47.324;18.792;2024-01-30T00:28:04;71.62;;;34.15;;
54143;SDS011;40050;47.324;18.792;2024-01-30T00:30:05;73.97;;;34.84;;
54143;SDS011;40050;47.324;18.792;2024-01-30T00:32:06;69.35;;;32.36;;
54143;SDS011;40050;47.324;18.792;2024-01-30T00:34:07;71.61;;;33.95;;
54143;SDS011;40050;47.324;18.792;2024-01-30T00:36:08;68.95;;;33.45;;
54143;SDS011;40050;47.324;18.792;2024-01-30T00:38:08;70.01;;;32.76;;
54143;SDS011;40050;47.324;18.792;2024-01-30T00:40:09;70.42;;;32.95;;
54143;SDS011;40050;47.324;18.792;2024-01-30T00:42:10;66.07;;;32.65;;
54143;SDS011;40050;47.324;18.792;2024-01-30T00:44:11;66.93;;;33.84;;
54143;SDS011;40050;47.324;18.792;2024-01-30T00:46:12;64.57;;;31.27;;
54143;SDS011;40050;47.324;18.792;2024-01-30T00:48:14;73.44;;;33.15;;
54143;SDS011;40050;47.324;18.792;2024-01-30T00:50:15;67.49;;;32.16;;
54143;SDS011;40050;47.324;18.792;2024-01-30T00:52:15;68.11;;;32.44;;
54143;SDS011;40050;47.324;18.792;2024-01-30T00:54:16;68.39;;;32.14;;
54143;SDS011;40050;47.324;18.792;2024-01-30T00:56:18;74.60;;;32.73;;
54143;SDS011;40050;47.324;18.792;2024-01-30T00:58:18;71.08;;;32.33;;
54143;SDS011;40050;47.324;18.792;2024-01-30T01:00:19;67.96;;;33.12;;
54143;SDS011;40050;47.324;18.792;2024-01-30T01:02:20;65.97;;;31.64;;
54143;SDS011;40050;47.324;18.792;2024-01-30T01:04:21;63.15;;;30.85;;
54143;SDS011;40050;47.324;18.792;2024-01-30T01:06:22;64.29;;;30.65;;
54143;SDS011;40050;47.324;18.792;2024-01-30T01:08:23;64.12;;;31.15;;
54143;SDS011;40050;47.324;18.792;2024-01-30T01:10:24;67.01;;;31.44;;
54143;SDS011;40050;47.324;18.792;2024-01-30T01:12:25;65.32;;;31.04;;
54143;SDS011;40050;47.324;18.792;2024-01-30T01:14:26;64.12;;;30.55;;
54143;SDS011;40050;47.324;18.792;2024-01-30T01:16:26;62.19;;;30.46;;
54143;SDS011;40050;47.324;18.792;2024-01-30T01:18:27;64.09;;;30.17;;
54143;SDS011;40050;47.324;18.792;2024-01-30T01:20:28;63.90;;;31.65;;
54143;SDS011;40050;47.324;18.792;2024-01-30T01:22:29;60.78;;;29.97;;
54143;SDS011;40050;47.324;18.792;2024-01-30T01:24:33;63.19;;;29.66;;
54143;SDS011;40050;47.324;18.792;2024-01-30T01:26:31;62.74;;;29.07;;
54143;SDS011;40050;47.324;18.792;2024-01-30T01:28:32;59.60;;;28.38;;
54143;SDS011;40050;47.324;18.792;2024-01-30T01:30:32;62.49;;;29.36;;
54143;SDS011;40050;47.324;18.792;2024-01-30T01:32:34;62.22;;;29.17;;
54143;SDS011;40050;47.324;18.792;2024-01-30T01:34:34;61.70;;;30.56;;
54143;SDS011;40050;47.324;18.792;2024-01-30T01:36:36;58.70;;;29.17;;
54143;SDS011;40050;47.324;18.792;2024-01-30T01:38:37;64.07;;;29.27;;
54143;SDS011;40050;47.324;18.792;2024-01-30T01:40:38;63.59;;;30.26;;
54143;SDS011;40050;47.324;18.792;2024-01-30T01:42:39;64.98;;;29.76;;
54143;SDS011;40050;47.324;18.792;2024-01-30T01:44:40;58.88;;;29.27;;
54143;SDS011;40050;47.324;18.792;2024-01-30T01:46:41;61.65;;;30.27;;
54143;SDS011;40050;47.324;18.792;2024-01-30T01:48:42;61.84;;;29.38;;
54143;SDS011;40050;47.324;18.792;2024-01-30T01:50:44;63.17;;;29.28;;
54143;SDS011;40050;47.324;18.792;2024-01-30T01:52:46;58.87;;;28.59;;
54143;SDS011;40050;47.324;18.792;2024-01-30T01:54:46;56.93;;;27.71;;
54143;SDS011;40050;47.324;18.792;2024-01-30T01:56:47;57.35;;;27.90;;
54143;SDS011;40050;47.324;18.792;2024-01-30T01:58:49;62.43;;;28.39;;
54143;SDS011;40050;47.324;18.792;2024-01-30T02:00:50;60.53;;;29.28;;
54143;SDS011;40050;47.324;18.792;2024-01-30T02:02:51;59.57;;;28.19;;
54143;SDS011;40050;47.324;18.792;2024-01-30T02:04:52;60.51;;;28.48;;
54143;SDS011;40050;47.324;18.792;2024-01-30T02:06:53;60.35;;;28.09;;
54143;SDS011;40050;47.324;18.792;2024-01-30T02:08:55;58.76;;;27.10;;
54143;SDS011;40050;47.324;18.792;2024-01-30T02:10:56;58.30;;;27.60;;
54143;SDS011;40050;47.324;18.792;2024-01-30T02:12:57;56.61;;;28.29;;
54143;SDS011;40050;47.324;18.792;2024-01-30T02:14:58;60.02;;;27.50;;
54143;SDS011;40050;47.324;18.792;2024-01-30T02:16:59;60.97;;;28.09;;
54143;SDS011;40050;47.324;18.792;2024-01-30T02:18:59;59.70;;;27.59;;
54143;SDS011;40050;47.324;18.792;2024-01-30T02:21:04;58.48;;;26.89;;
54143;SDS011;40050;47.324;18.792;2024-01-30T02:23:03;53.48;;;26.99;;
54143;SDS011;40050;47.324;18.792;2024-01-30T02:25:04;58.29;;;27.49;;
54143;SDS011;40050;47.324;18.792;2024-01-30T02:27:05;58.94;;;27.78;;
54143;SDS011;40050;47.324;18.792;2024-01-30T02:29:06;58.54;;;27.29;;
54143;SDS011;40050;47.324;18.792;2024-01-30T02:31:07;59.58;;;27.68;;
54143;SDS011;40050;47.324;18.792;2024-01-30T02:33:08;54.99;;;26.70;;
54143;SDS011;40050;47.324;18.792;2024-01-30T02:35:09;53.98;;;26.99;;
54143;SDS011;40050;47.324;18.792;2024-01-30T02:37:13;52.00;;;25.91;;
54143;SDS011;40050;47.324;18.792;2024-01-30T02:39:14;57.09;;;27.79;;
54143;SDS011;40050;47.324;18.792;2024-01-30T02:41:14;58.31;;;27.59;;
54143;SDS011;40050;47.324;18.792;2024-01-30T02:43:15;54.54;;;27.00;;
54143;SDS011;40050;47.324;18.792;2024-01-30T02:45:16;55.33;;;26.21;;
54143;SDS011;40050;47.324;18.792;2024-01-30T02:47:17;55.27;;;26.02;;
54143;SDS011;40050;47.324;18.792;2024-01-30T02:49:18;54.81;;;25.42;;
54143;SDS011;40050;47.324;18.792;2024-01-30T02:51:19;60.62;;;27.00;;
54143;SDS011;40050;47.324;18.792;2024-01-30T02:53:20;52.14;;;26.61;;
54143;SDS011;40050;47.324;18.792;2024-01-30T02:55:21;54.18;;;25.71;;
54143;SDS011;40050;47.324;18.792;2024-01-30T02:57:22;51.35;;;26.90;;
54143;SDS011;40050;47.324;18.792;2024-01-30T02:59:23;52.11;;;25.71;;
54143;SDS011;40050;47.324;18.792;2024-01-30T03:01:23;58.24;;;26.60;;
54143;SDS011;40050;47.324;18.792;2024-01-30T03:03:24;54.87;;;26.61;;
54143;SDS011;40050;47.324;18.792;2024-01-30T03:05:25;52.51;;;26.01;;
54143;SDS011;40050;47.324;18.792;2024-01-30T03:07:26;54.48;;;26.60;;
54143;SDS011;40050;47.324;18.792;2024-01-30T03:09:27;55.47;;;27.11;;
54143;SDS011;40050;47.324;18.792;2024-01-30T03:11:28;52.32;;;25.84;;
54143;SDS011;40050;47.324;18.792;2024-01-30T03:13:29;55.56;;;26.15;;
54143;SDS011;40050;47.324;18.792;2024-01-30T03:15:30;56.17;;;26.45;;
54143;SDS011;40050;47.324;18.792;2024-01-30T03:17:31;60.09;;;27.04;;
54143;SDS011;40050;47.324;18.792;2024-01-30T03:19:32;58.93;;;28.11;;
54143;SDS011;40050;47.324;18.792;2024-01-30T03:21:33;59.87;;;27.81;;
54143;SDS011;40050;47.324;18.792;2024-01-30T03:23:33;59.28;;;26.81;;
54143;SDS011;40050;47.324;18.792;2024-01-30T03:25:35;57.94;;;26.61;;
54143;SDS011;40050;47.324;18.792;2024-01-30T03:27:35;55.10;;;26.91;;
54143;SDS011;40050;47.324;18.792;2024-01-30T03:29:36;53.93;;;25.32;;
54143;SDS011;40050;47.324;18.792;2024-01-30T03:31:38;55.71;;;25.52;;
54143;SDS011;40050;47.324;18.792;2024-01-30T03:33:38;54.10;;;26.60;;
54143;SDS011;40050;47.324;18.792;2024-01-30T03:35:39;53.26;;;25.91;;
54143;SDS011;40050;47.324;18.792;2024-01-30T03:37:40;51.18;;;25.22;;
54143;SDS011;40050;47.324;18.792;2024-01-30T03:39:41;55.61;;;25.12;;
54143;SDS011;40050;47.324;18.792;2024-01-30T03:41:42;54.20;;;24.82;;
54143;SDS011;40050;47.324;18.792;2024-01-30T03:43:43;52.14;;;25.91;;
54143;SDS011;40050;47.324;18.792;2024-01-30T03:45:44;55.94;;;25.92;;
54143;SDS011;40050;47.324;18.792;2024-01-30T03:47:45;54.03;;;25.72;;
54143;SDS011;40050;47.324;18.792;2024-01-30T03:49:46;52.53;;;25.82;;
54143;SDS011;40050;47.324;18.792;2024-01-30T03:51:46;56.32;;;26.20;;
54143;SDS011;40050;47.324;18.792;2024-01-30T03:53:48;50.39;;;25.41;;
54143;SDS011;40050;47.324;18.792;2024-01-30T03:55:49;48.80;;;25.31;;
54143;SDS011;40050;47.324;18.792;2024-01-30T03:57:50;53.11;;;26.00;;
54143;SDS011;40050;47.324;18.792;2024-01-30T03:59:51;52.69;;;25.42;;
54143;SDS011;40050;47.324;18.792;2024-01-30T04:01:52;54.28;;;26.32;;
54143;SDS011;40050;47.324;18.792;2024-01-30T04:03:53;52.09;;;25.33;;
54143;SDS011;40050;47.324;18.792;2024-01-30T04:05:54;58.52;;;27.51;;
54143;SDS011;40050;47.324;18.792;2024-01-30T04:07:55;51.49;;;25.14;;
54143;SDS011;40050;47.324;18.792;2024-01-30T04:09:55;56.69;;;25.83;;
54143;SDS011;40050;47.324;18.792;2024-01-30T04:11:56;57.21;;;26.13;;
54143;SDS011;40050;47.324;18.792;2024-01-30T04:13:57;54.70;;;26.23;;
54143;SDS011;40050;47.324;18.792;2024-01-30T04:15:59;48.94;;;25.04;;
54143;SDS011;40050;47.324;18.792;2024-01-30T04:17:59;54.68;;;25.52;;
54143;SDS011;40050;47.324;18.792;2024-01-30T04:20:00;58.11;;;26.18;;
54143;SDS011;40050;47.324;18.792;2024-01-30T04:22:01;54.44;;;25.98;;
54143;SDS011;40050;47.324;18.792;2024-01-30T04:24:02;51.64;;;25.68;;
54143;SDS011;40050;47.324;18.792;2024-01-30T04:26:03;53.31;;;25.68;;
54143;SDS011;40050;47.324;18.792;2024-01-30T04:28:04;50.69;;;26.46;;
54143;SDS011;40050;47.324;18.792;2024-01-30T04:30:05;56.85;;;26.16;;
54143;SDS011;40050;47.324;18.792;2024-01-30T04:32:07;53.66;;;26.56;;
54143;SDS011;40050;47.324;18.792;2024-01-30T04:34:08;52.08;;;26.16;;
54143;SDS011;40050;47.324;18.792;2024-01-30T04:36:09;52.99;;;26.26;;
54143;SDS011;40050;47.324;18.792;2024-01-30T04:38:09;49.38;;;24.88;;
54143;SDS011;40050;47.324;18.792;2024-01-30T04:40:10;48.00;;;24.49;;
54143;SDS011;40050;47.324;18.792;2024-01-30T04:42:11;51.94;;;26.37;;
54143;SDS011;40050;47.324;18.792;2024-01-30T04:44:12;51.12;;;25.47;;
54143;SDS011;40050;47.324;18.792;2024-01-30T04:46:13;51.56;;;25.66;;
54143;SDS011;40050;47.324;18.792;2024-01-30T04:48:14;55.15;;;25.76;;
54143;SDS011;40050;47.324;18.792;2024-01-30T04:50:15;55.36;;;26.06;;
54143;SDS011;40050;47.324;18.792;2024-01-30T04:52:16;52.67;;;25.97;;
54143;SDS011;40050;47.324;18.792;2024-01-30T04:54:17;56.70;;;26.17;;
54143;SDS011;40050;47.324;18.792;2024-01-30T04:56:18;50.45;;;25.48;;
54143;SDS011;40050;47.324;18.792;2024-01-30T04:58:18;50.55;;;24.69;;
54143;SDS011;40050;47.324;18.792;2024-01-30T05:00:19;50.09;;;24.79;;
54143;SDS011;40050;47.324;18.792;2024-01-30T05:02:20;49.81;;;24.30;;
54143;SDS011;40050;47.324;18.792;2024-01-30T05:04:21;48.49;;;24.49;;
54143;SDS011;40050;47.324;18.792;2024-01-30T05:06:25;52.75;;;24.79;;
54143;SDS011;40050;47.324;18.792;2024-01-30T05:08:23;48.50;;;23.52;;
54143;SDS011;40050;47.324;18.792;2024-01-30T05:10:24;54.28;;;25.01;;
54143;SDS011;40050;47.324;18.792;2024-01-30T05:12:25;49.40;;;24.12;;
54143;SDS011;40050;47.324;18.792;2024-01-30T05:14:26;50.56;;;25.00;;
54143;SDS011;40050;47.324;18.792;2024-01-30T05:16:27;52.01;;;25.59;;
54143;SDS011;40050;47.324;18.792;2024-01-30T05:18:28;52.25;;;25.38;;
54143;SDS011;40050;47.324;18.792;2024-01-30T05:20:29;47.91;;;23.70;;
54143;SDS011;40050;47.324;18.792;2024-01-30T05:22:30;52.75;;;24.98;;
54143;SDS011;40050;47.324;18.792;2024-01-30T05:24:31;49.09;;;24.38;;
54143;SDS011;40050;47.324;18.792;2024-01-30T05:26:31;47.53;;;23.99;;
54143;SDS011;40050;47.324;18.792;2024-01-30T05:28:32;46.56;;;23.71;;
54143;SDS011;40050;47.324;18.792;2024-01-30T05:30:33;50.83;;;24.69;;
54143;SDS011;40050;47.324;18.792;2024-01-30T05:32:35;51.63;;;23.60;;
54143;SDS011;40050;47.324;18.792;2024-01-30T05:34:36;52.22;;;24.69;;
54143;SDS011;40050;47.324;18.792;2024-01-30T05:36:48;48.08;;;23.30;;
54143;SDS011;40050;47.324;18.792;2024-01-30T05:38:49;48.44;;;23.30;;
54143;SDS011;40050;47.324;18.792;2024-01-30T05:40:49;48.07;;;24.29;;
54143;SDS011;40050;47.324;18.792;2024-01-30T05:42:50;53.20;;;24.19;;
54143;SDS011;40050;47.324;18.792;2024-01-30T05:44:51;45.37;;;22.91;;
54143;SDS011;40050;47.324;18.792;2024-01-30T05:46:52;47.15;;;23.11;;
54143;SDS011;40050;47.324;18.792;2024-01-30T05:48:53;49.02;;;23.60;;
54143;SDS011;40050;47.324;18.792;2024-01-30T05:50:54;46.86;;;22.41;;
54143;SDS011;40050;47.324;18.792;2024-01-30T05:52:55;58.29;;;30.21;;
54143;SDS011;40050;47.324;18.792;2024-01-30T05:54:56;48.50;;;24.30;;
54143;SDS011;40050;47.324;18.792;2024-01-30T05:56:57;46.08;;;24.10;;
54143;SDS011;40050;47.324;18.792;2024-01-30T05:58:58;50.56;;;25.58;;
54143;SDS011;40050;47.324;18.792;2024-01-30T06:00:59;50.65;;;24.14;;
54143;SDS011;40050;47.324;18.792;2024-01-30T06:03:00;45.72;;;22.40;;
54143;SDS011;40050;47.324;18.792;2024-01-30T06:05:01;44.13;;;21.36;;
54143;SDS011;40050;47.324;18.792;2024-01-30T06:07:02;41.17;;;21.26;;
54143;SDS011;40050;47.324;18.792;2024-01-30T06:09:02;47.83;;;23.04;;
54143;SDS011;40050;47.324;18.792;2024-01-30T06:11:03;47.55;;;21.75;;
54143;SDS011;40050;47.324;18.792;2024-01-30T06:13:04;47.91;;;23.73;;
54143;SDS011;40050;47.324;18.792;2024-01-30T06:15:05;50.07;;;22.84;;
54143;SDS011;40050;47.324;18.792;2024-01-30T06:17:06;49.64;;;23.43;;
54143;SDS011;40050;47.324;18.792;2024-01-30T06:19:07;48.79;;;22.84;;
54143;SDS011;40050;47.324;18.792;2024-01-30T06:21:08;49.06;;;22.34;;
54143;SDS011;40050;47.324;18.792;2024-01-30T06:23:08;50.55;;;23.53;;
54143;SDS011;40050;47.324;18.792;2024-01-30T06:25:09;47.73;;;21.95;;
54143;SDS011;40050;47.324;18.792;2024-01-30T06:27:10;49.97;;;21.75;;
54143;SDS011;40050;47.324;18.792;2024-01-30T06:29:11;45.97;;;22.63;;
54143;SDS011;40050;47.324;18.792;2024-01-30T06:31:12;47.63;;;22.43;;
54143;SDS011;40050;47.324;18.792;2024-01-30T06:33:13;49.11;;;23.71;;
54143;SDS011;40050;47.324;18.792;2024-01-30T06:35:14;46.09;;;23.11;;
54143;SDS011;40050;47.324;18.792;2024-01-30T06:37:15;49.26;;;23.11;;
54143;SDS011;40050;47.324;18.792;2024-01-30T06:39:16;46.00;;;22.22;;
54143;SDS011;40050;47.324;18.792;2024-01-30T06:41:17;44.87;;;21.73;;
54143;SDS011;40050;47.324;18.792;2024-01-30T06:43:18;47.06;;;22.71;;
54143;SDS011;40050;47.324;18.792;2024-01-30T06:45:19;52.21;;;25.17;;
54143;SDS011;40050;47.324;18.792;2024-01-30T06:47:19;47.93;;;23.58;;
54143;SDS011;40050;47.324;18.792;2024-01-30T06:49:20;55.77;;;26.14;;
54143;SDS011;40050;47.324;18.792;2024-01-30T06:51:21;50.25;;;23.87;;
54143;SDS011;40050;47.324;18.792;2024-01-30T06:53:22;55.20;;;25.25;;
54143;SDS011;40050;47.324;18.792;2024-01-30T06:55:23;56.60;;;25.55;;
54143;SDS011;40050;47.324;18.792;2024-01-30T06:57:24;57.03;;;25.45;;
54143;SDS011;40050;47.324;18.792;2024-01-30T06:59:25;56.29;;;25.45;;
54143;SDS011;40050;47.324;18.792;2024-01-30T07:01:29;52.15;;;25.34;;
54143;SDS011;40050;47.324;18.792;2024-01-30T07:03:27;57.59;;;26.22;;
54143;SDS011;40050;47.324;18.792;2024-01-30T07:05:27;53.11;;;25.33;;
54143;SDS011;40050;47.324;18.792;2024-01-30T07:07:28;51.70;;;25.51;;
54143;SDS011;40050;47.324;18.792;2024-01-30T07:09:29;54.04;;;26.19;;
54143;SDS011;40050;47.324;18.792;2024-01-30T07:11:30;48.46;;;25.40;;
54143;SDS011;40050;47.324;18.792;2024-01-30T07:13:32;53.40;;;25.48;;
54143;SDS011;40050;47.324;18.792;2024-01-30T07:15:32;51.25;;;26.16;;
54143;SDS011;40050;47.324;18.792;2024-01-30T07:17:34;49.10;;;24.29;;
54143;SDS011;40050;47.324;18.792;2024-01-30T07:19:34;49.91;;;24.68;;
54143;SDS011;40050;47.324;18.792;2024-01-30T07:21:35;55.69;;;25.07;;
54143;SDS011;40050;47.324;18.792;2024-01-30T07:23:36;58.81;;;26.23;;
54143;SDS011;40050;47.324;18.792;2024-01-30T07:25:38;52.08;;;25.46;;
54143;SDS011;40050;47.324;18.792;2024-01-30T07:27:38;56.37;;;25.44;;
54143;SDS011;40050;47.324;18.792;2024-01-30T07:29:39;52.93;;;26.50;;
54143;SDS011;40050;47.324;18.792;2024-01-30T07:31:40;52.07;;;26.66;;
54143;SDS011;40050;47.324;18.792;2024-01-30T07:33:41;53.73;;;27.43;;
54143;SDS011;40050;47.324;18.792;2024-01-30T07:35:42;55.98;;;27.41;;
54143;SDS011;40050;47.324;18.792;2024-01-30T07:37:43;62.24;;;33.11;;
54143;SDS011;40050;47.324;18.792;2024-01-30T07:39:44;61.70;;;31.76;;
54143;SDS011;40050;47.324;18.792;2024-01-30T07:41:45;68.08;;;36.70;;
54143;SDS011;40050;47.324;18.792;2024-01-30T07:43:45;70.30;;;38.84;;
54143;SDS011;40050;47.324;18.792;2024-01-30T07:45:46;84.80;;;44.94;;
54143;SDS011;40050;47.324;18.792;2024-01-30T07:47:50;54.00;;;26.63;;
54143;SDS011;40050;47.324;18.792;2024-01-30T07:49:48;46.06;;;23.75;;
54143;SDS011;40050;47.324;18.792;2024-01-30T07:51:49;55.74;;;28.55;;
54143;SDS011;40050;47.324;18.792;2024-01-30T07:53:50;67.16;;;33.74;;
54143;SDS011;40050;47.324;18.792;2024-01-30T07:55:52;84.85;;;43.68;;
54143;SDS011;40050;47.324;18.792;2024-01-30T07:57:52;100.87;;;55.95;;
54143;SDS011;40050;47.324;18.792;2024-01-30T07:59:53;97.53;;;53.87;;
54143;SDS011;40050;47.324;18.792;2024-01-30T08:01:54;105.30;;;59.60;;
54143;SDS011;40050;47.324;18.792;2024-01-30T08:03:55;57.41;;;31.55;;
54143;SDS011;40050;47.324;18.792;2024-01-30T08:05:56;55.99;;;29.22;;
54143;SDS011;40050;47.324;18.792;2024-01-30T08:07:57;61.40;;;35.31;;
54143;SDS011;40050;47.324;18.792;2024-01-30T08:09:58;60.37;;;32.62;;
54143;SDS011;40050;47.324;18.792;2024-01-30T08:11:59;54.32;;;30.50;;
54143;SDS011;40050;47.324;18.792;2024-01-30T08:13:59;60.90;;;33.03;;
54143;SDS011;40050;47.324;18.792;2024-01-30T08:16:00;49.82;;;27.82;;
54143;SDS011;40050;47.324;18.792;2024-01-30T08:18:01;53.49;;;28.91;;
54143;SDS011;40050;47.324;18.792;2024-01-30T08:20:02;50.92;;;29.01;;
54143;SDS011;40050;47.324;18.792;2024-01-30T08:22:03;41.12;;;23.12;;
54143;SDS011;40050;47.324;18.792;2024-01-30T08:24:04;43.42;;;22.09;;
54143;SDS011;40050;47.324;18.792;2024-01-30T08:26:05;40.37;;;21.85;;
54143;SDS011;40050;47.324;18.792;2024-01-30T08:28:06;41.30;;;21.48;;
54143;SDS011;40050;47.324;18.792;2024-01-30T08:30:07;38.45;;;21.59;;
54143;SDS011;40050;47.324;18.792;2024-01-30T08:32:08;40.50;;;21.19;;
54143;SDS011;40050;47.324;18.792;2024-01-30T08:34:09;39.79;;;20.64;;
54143;SDS011;40050;47.324;18.792;2024-01-30T08:36:10;40.36;;;21.56;;
54143;SDS011;40050;47.324;18.792;2024-01-30T08:38:11;40.42;;;21.78;;
54143;SDS011;40050;47.324;18.792;2024-01-30T08:40:11;40.26;;;21.00;;
54143;SDS011;40050;47.324;18.792;2024-01-30T08:42:12;44.16;;;23.25;;
54143;SDS011;40050;47.324;18.792;2024-01-30T08:44:13;53.09;;;27.97;;
54143;SDS011;40050;47.324;18.792;2024-01-30T08:46:17;49.00;;;25.23;;
54143;SDS011;40050;47.324;18.792;2024-01-30T08:48:15;46.19;;;24.85;;
54143;SDS011;40050;47.324;18.792;2024-01-30T08:50:16;41.73;;;22.39;;
54143;SDS011;40050;47.324;18.792;2024-01-30T08:52:17;41.03;;;21.71;;
54143;SDS011;40050;47.324;18.792;2024-01-30T08:54:18;45.48;;;24.40;;
54143;SDS011;40050;47.324;18.792;2024-01-30T08:56:19;43.93;;;22.93;;
54143;SDS011;40050;47.324;18.792;2024-01-30T08:58:19;43.37;;;24.14;;
54143;SDS011;40050;47.324;18.792;2024-01-30T09:00:20;44.57;;;23.69;;
54143;SDS011;40050;47.324;18.792;2024-01-30T09:02:21;52.71;;;27.23;;
54143;SDS011;40050;47.324;18.792;2024-01-30T09:04:22;47.01;;;24.30;;
54143;SDS011;40050;47.324;18.792;2024-01-30T09:06:23;50.15;;;25.30;;
54143;SDS011;40050;47.324;18.792;2024-01-30T09:08:24;45.90;;;23.13;;
54143;SDS011;40050;47.324;18.792;2024-01-30T09:10:25;47.00;;;23.47;;
54143;SDS011;40050;47.324;18.792;2024-01-30T09:12:25;49.88;;;26.16;;
54143;SDS011;40050;47.324;18.792;2024-01-30T09:14:26;44.26;;;22.72;;
54143;SDS011;40050;47.324;18.792;2024-01-30T09:16:27;46.66;;;24.80;;
54143;SDS011;40050;47.324;18.792;2024-01-30T09:18:28;78.08;;;35.72;;
54143;SDS011;40050;47.324;18.792;2024-01-30T09:20:29;61.66;;;29.99;;
54143;SDS011;40050;47.324;18.792;2024-01-30T09:22:30;49.99;;;24.33;;
54143;SDS011;40050;47.324;18.792;2024-01-30T09:24:34;48.25;;;23.23;;
54143;SDS011;40050;47.324;18.792;2024-01-30T09:26:35;42.63;;;21.85;;
54143;SDS011;40050;47.324;18.792;2024-01-30T09:28:36;44.71;;;22.82;;
54143;SDS011;40050;47.324;18.792;2024-01-30T09:30:38;47.48;;;24.71;;
54143;SDS011;40050;47.324;18.792;2024-01-30T09:32:39;58.74;;;29.45;;
54143;SDS011;40050;47.324;18.792;2024-01-30T09:34:39;61.68;;;31.33;;
54143;SDS011;40050;47.324;18.792;2024-01-30T09:36:40;48.52;;;24.80;;
54143;SDS011;40050;47.324;18.792;2024-01-30T09:38:41;48.32;;;26.20;;
54143;SDS011;40050;47.324;18.792;2024-01-30T09:40:42;49.61;;;25.31;;
54143;SDS011;40050;47.324;18.792;2024-01-30T09:42:52;50.11;;;24.71;;
54143;SDS011;40050;47.324;18.792;2024-01-30T09:44:54;49.61;;;25.78;;
54143;SDS011;40050;47.324;18.792;2024-01-30T09:46:57;50.26;;;25.27;;
54143;SDS011;40050;47.324;18.792;2024-01-30T09:48:58;50.87;;;25.65;;
54143;SDS011;40050;47.324;18.792;2024-01-30T09:50:59;55.89;;;28.09;;
54143;SDS011;40050;47.324;18.792;2024-01-30T09:53:00;56.94;;;27.57;;
54143;SDS011;40050;47.324;18.792;2024-01-30T09:55:01;50.78;;;26.40;;
54143;SDS011;40050;47.324;18.792;2024-01-30T09:57:02;43.07;;;22.76;;
54143;SDS011;40050;47.324;18.792;2024-01-30T09:59:03;37.64;;;20.50;;
54143;SDS011;40050;47.324;18.792;2024-01-30T10:01:04;43.10;;;22.69;;
54143;SDS011;40050;47.324;18.792;2024-01-30T10:03:05;46.05;;;23.16;;
54143;SDS011;40050;47.324;18.792;2024-01-30T10:05:06;42.97;;;22.95;;
54143;SDS011;40050;47.324;18.792;2024-01-30T10:07:07;44.51;;;23.93;;
54143;SDS011;40050;47.324;18.792;2024-01-30T10:09:07;45.53;;;25.03;;
54143;SDS011;40050;47.324;18.792;2024-01-30T10:11:08;47.43;;;24.37;;
54143;SDS011;40050;47.324;18.792;2024-01-30T10:13:10;43.94;;;24.38;;
54143;SDS011;40050;47.324;18.792;2024-01-30T10:15:11;52.36;;;26.15;;
54143;SDS011;40050;47.324;18.792;2024-01-30T10:17:12;48.06;;;26.15;;
54143;SDS011;40050;47.324;18.792;2024-01-30T10:19:13;43.77;;;24.29;;
54143;SDS011;40050;47.324;18.792;2024-01-30T10:21:14;44.30;;;23.99;;
54143;SDS011;40050;47.324;18.792;2024-01-30T10:23:15;44.54;;;22.90;;
54143;SDS011;40050;47.324;18.792;2024-01-30T10:25:17;44.68;;;23.40;;
54143;SDS011;40050;47.324;18.792;2024-01-30T10:27:23;47.72;;;24.78;;
54143;SDS011;40050;47.324;18.792;2024-01-30T10:29:19;46.53;;;24.67;;
54143;SDS011;40050;47.324;18.792;2024-01-30T10:31:28;51.48;;;26.83;;
54143;SDS011;40050;47.324;18.792;2024-01-30T10:33:29;47.50;;;23.66;;
54143;SDS011;40050;47.324;18.792;2024-01-30T10:35:29;48.86;;;24.75;;
54143;SDS011;40050;47.324;18.792;2024-01-30T10:37:43;46.15;;;24.46;;
54143;SDS011;40050;47.324;18.792;2024-01-30T10:39:45;43.85;;;22.08;;
54143;SDS011;40050;47.324;18.792;2024-01-30T10:41:44;46.15;;;22.26;;
54143;SDS011;40050;47.324;18.792;2024-01-30T10:43:47;42.15;;;21.46;;
54143;SDS011;40050;47.324;18.792;2024-01-30T10:45:47;43.81;;;22.71;;
54143;SDS011;40050;47.324;18.792;2024-01-30T10:47:50;45.17;;;22.10;;
54143;SDS011;40050;47.324;18.792;2024-01-30T10:49:51;44.68;;;21.79;;
54143;SDS011;40050;47.324;18.792;2024-01-30T10:51:53;41.85;;;21.01;;
54143;SDS011;40050;47.324;18.792;2024-01-30T10:53:55;45.17;;;20.99;;
54143;SDS011;40050;47.324;18.792;2024-01-30T10:55:56;44.58;;;22.14;;
54143;SDS011;40050;47.324;18.792;2024-01-30T10:57:57;43.12;;;22.00;;
54143;SDS011;40050;47.324;18.792;2024-01-30T10:59:59;46.01;;;22.68;;
54143;SDS011;40050;47.324;18.792;2024-01-30T11:02:00;44.95;;;22.64;;
54143;SDS011;40050;47.324;18.792;2024-01-30T11:04:01;50.45;;;23.59;;
54143;SDS011;40050;47.324;18.792;2024-01-30T11:06:04;49.33;;;23.60;;
54143;SDS011;40050;47.324;18.792;2024-01-30T11:08:13;48.67;;;22.83;;
54143;SDS011;40050;47.324;18.792;2024-01-30T11:10:07;47.30;;;22.91;;
54143;SDS011;40050;47.324;18.792;2024-01-30T11:12:27;53.89;;;22.81;;
54143;SDS011;40050;47.324;18.792;2024-01-30T11:14:31;52.82;;;24.15;;
54143;SDS011;40050;47.324;18.792;2024-01-30T11:16:36;49.54;;;23.48;;
54143;SDS011;40050;47.324;18.792;2024-01-30T11:18:37;48.56;;;23.26;;
54143;SDS011;40050;47.324;18.792;2024-01-30T11:20:42;48.80;;;24.33;;
54143;SDS011;40050;47.324;18.792;2024-01-30T11:22:44;48.76;;;23.85;;
54143;SDS011;40050;47.324;18.792;2024-01-30T11:24:44;51.00;;;23.83;;
54143;SDS011;40050;47.324;18.792;2024-01-30T11:26:44;46.67;;;22.93;;
54143;SDS011;40050;47.324;18.792;2024-01-30T11:28:52;47.67;;;22.04;;
54143;SDS011;40050;47.324;18.792;2024-01-30T11:31:02;39.10;;;20.09;;
54143;SDS011;40050;47.324;18.792;2024-01-30T11:32:58;38.92;;;19.62;;
54143;SDS011;40050;47.324;18.792;2024-01-30T11:34:55;41.12;;;20.19;;
54143;SDS011;40050;47.324;18.792;2024-01-30T11:37:02;42.24;;;21.08;;
54143;SDS011;40050;47.324;18.792;2024-01-30T11:38:58;40.50;;;20.78;;